Weather at Bancasi Airport

Public forecast

Using degrees Celsius for public forecast. Weather courtesy of forecast.io.

Closest aviation weather report (METAR) to Bancasi Airport

Closest report is Francisco Bangoy International Airport, 110.1 nm (203.9 km) S.

2024/05/26 15:00 (retrieved 22 minutes ago)

RPMD 261500Z 30002KT 9999 FEW016 BKN250 26/26 Q1011 RESHRA RMK A2985

Closest aviation forecast (TAF) to Bancasi Airport

Closest forecast is Francisco Bangoy International Airport, 110.1 nm (203.9 km) S.

2024/05/26 12:00 (retrieved 3 hours ago)

TAF RPMD 261100Z 2612/2712 18007KT 9999 FEW016 BKN090 TEMPO 2612/2618 VRB06KT 4000 SHRA SCT015CB OVC080 TEMPO 2703/2709 16012KT 6000 -SHRA SCT015CB BKN080